createdAt,value
2023-05-19T00:01:17.827Z,9.02
2023-05-19T00:03:57.753Z,8.82
2023-05-19T00:06:33.459Z,8.97
2023-05-19T00:09:01.458Z,8.99
2023-05-19T00:11:29.078Z,8.95
2023-05-19T00:13:58.012Z,8.88
2023-05-19T00:16:26.564Z,8.90
2023-05-19T00:18:54.230Z,8.88
2023-05-19T00:21:21.083Z,8.89
2023-05-19T00:23:47.787Z,8.69
2023-05-19T00:26:15.694Z,8.84
2023-05-19T00:28:42.283Z,8.85
2023-05-19T00:31:09.048Z,8.80
2023-05-19T00:33:35.798Z,8.87
2023-05-19T00:36:04.058Z,8.80
2023-05-19T00:38:31.972Z,8.87
2023-05-19T00:40:59.717Z,8.75
2023-05-19T00:43:26.953Z,8.87
2023-05-19T00:45:53.853Z,8.88
2023-05-19T00:48:21.129Z,8.83
2023-05-19T00:50:49.312Z,8.88
2023-05-19T00:53:18.138Z,8.89
2023-05-19T00:55:46.306Z,8.70
2023-05-19T00:58:14.431Z,8.83
2023-05-19T01:00:41.220Z,8.72
2023-05-19T01:03:11.463Z,8.86
2023-05-19T01:05:42.502Z,8.86
2023-05-19T01:08:09.330Z,8.70
2023-05-19T01:10:37.846Z,8.80
2023-05-19T01:13:05.937Z,8.61
2023-05-19T01:15:45.389Z,8.66
2023-05-19T01:18:16.715Z,8.84
2023-05-19T01:20:52.644Z,8.68
2023-05-19T01:23:41.056Z,8.82
2023-05-19T01:26:36.053Z,8.81
2023-05-19T01:29:17.954Z,8.81
2023-05-19T01:31:48.102Z,8.35
2023-05-19T01:34:16.427Z,8.73
2023-05-19T01:36:45.108Z,8.56
2023-05-19T01:39:12.490Z,8.54
2023-05-19T01:41:41.762Z,8.77
2023-05-19T01:44:09.857Z,8.61
2023-05-19T01:46:37.627Z,8.73
2023-05-19T01:49:05.590Z,8.62
2023-05-19T01:51:32.360Z,8.68
2023-05-19T01:53:59.121Z,8.51
2023-05-19T01:56:44.056Z,8.72
2023-05-19T01:59:48.694Z,8.71
2023-05-19T02:02:29.524Z,8.58
2023-05-19T02:05:02.897Z,8.67
2023-05-19T02:07:44.804Z,8.62
2023-05-19T02:10:28.145Z,8.57
2023-05-19T02:12:58.741Z,8.58
2023-05-19T02:15:28.781Z,8.60
2023-05-19T02:17:58.098Z,8.46
2023-05-19T02:20:24.828Z,8.55
2023-05-19T02:22:51.730Z,8.32
2023-05-19T02:25:18.554Z,8.56
2023-05-19T02:27:45.740Z,8.51
2023-05-19T02:30:12.627Z,8.49
2023-05-19T02:32:39.629Z,8.41
2023-05-19T02:35:06.657Z,8.45
2023-05-19T02:37:33.285Z,8.44
2023-05-19T02:39:59.968Z,8.27
2023-05-19T02:42:26.738Z,8.39
2023-05-19T02:44:54.836Z,8.47
2023-05-19T02:47:21.632Z,8.29
2023-05-19T02:49:48.313Z,8.41
2023-05-19T02:52:15.079Z,8.43
2023-05-19T02:54:41.784Z,8.33
2023-05-19T02:57:08.425Z,8.35
2023-05-19T02:59:35.019Z,8.27
2023-05-19T03:02:02.514Z,8.32
2023-05-19T03:04:29.875Z,8.06
2023-05-19T03:06:57.673Z,8.16
2023-05-19T03:09:24.325Z,8.20
2023-05-19T03:11:51.079Z,8.23
2023-05-19T03:14:18.754Z,8.18
2023-05-19T03:16:45.880Z,8.16
2023-05-19T03:19:12.766Z,8.04
2023-05-19T03:21:39.457Z,8.08
2023-05-19T03:24:06.739Z,8.15
2023-05-19T03:26:33.450Z,8.13
2023-05-19T03:29:00.123Z,8.15
2023-05-19T03:31:27.023Z,8.08
2023-05-19T03:33:53.743Z,7.92
2023-05-19T03:36:22.030Z,8.10
2023-05-19T03:38:49.001Z,8.05
2023-05-19T03:41:16.171Z,8.24
2023-05-19T03:43:42.792Z,8.23
2023-05-19T03:46:09.656Z,8.22
2023-05-19T03:48:36.384Z,8.22
2023-05-19T03:51:04.454Z,8.14
2023-05-19T03:53:31.250Z,8.27
2023-05-19T03:55:57.986Z,8.25
2023-05-19T03:58:24.671Z,8.31
2023-05-19T04:00:51.424Z,8.31
2023-05-19T04:03:18.490Z,8.25
2023-05-19T04:05:45.210Z,8.36
2023-05-19T04:08:11.885Z,8.46
2023-05-19T04:10:38.502Z,8.52
2023-05-19T04:13:05.117Z,8.59
2023-05-19T04:15:31.844Z,8.65
2023-05-19T04:17:58.556Z,8.60
2023-05-19T04:20:25.254Z,8.69
2023-05-19T04:22:51.947Z,8.77
2023-05-19T04:25:20.181Z,9.01
2023-05-19T04:27:48.285Z,9.39
2023-05-19T04:30:22.152Z,10.06
2023-05-19T04:32:51.903Z,11.07
2023-05-19T04:35:19.433Z,11.85
2023-05-19T04:37:46.088Z,12.80
2023-05-19T04:40:13.301Z,13.50
2023-05-19T04:42:45.842Z,14.17
2023-05-19T04:45:13.929Z,14.79
2023-05-19T04:47:42.436Z,15.30
2023-05-19T04:50:11.165Z,16.10
2023-05-19T04:52:37.926Z,16.80
2023-05-19T04:55:04.983Z,17.31
2023-05-19T04:57:31.778Z,17.90
2023-05-19T05:00:00.291Z,18.18
2023-05-19T05:02:29.628Z,18.63
2023-05-19T05:04:56.816Z,19.12
2023-05-19T05:07:23.958Z,19.43
2023-05-19T05:09:50.682Z,19.79
2023-05-19T05:12:21.739Z,20.18
2023-05-19T05:14:48.720Z,20.45
2023-05-19T05:17:16.185Z,20.68
2023-05-19T05:19:43.041Z,20.87
2023-05-19T05:22:09.952Z,20.95
2023-05-19T05:24:36.851Z,21.28
2023-05-19T05:27:03.968Z,21.51
2023-05-19T05:29:31.008Z,21.50
2023-05-19T05:31:57.853Z,21.44
2023-05-19T05:34:24.889Z,21.65
2023-05-19T05:36:51.571Z,21.73
2023-05-19T05:39:18.407Z,21.92
2023-05-19T05:41:45.037Z,22.12
2023-05-19T05:44:11.688Z,22.18
2023-05-19T05:46:38.590Z,22.36
2023-05-19T05:49:05.639Z,22.69
2023-05-19T05:51:33.011Z,22.74
2023-05-19T05:54:01.119Z,22.91
2023-05-19T05:56:28.207Z,23.04
2023-05-19T05:58:54.864Z,23.16
2023-05-19T06:01:21.975Z,22.93
2023-05-19T06:03:48.676Z,22.98
2023-05-19T06:06:15.436Z,23.37
2023-05-19T06:08:42.347Z,23.54
2023-05-19T06:11:09.429Z,23.64
2023-05-19T06:13:36.601Z,24.06
2023-05-19T06:16:03.817Z,24.09
2023-05-19T06:18:30.583Z,24.04
2023-05-19T06:20:57.237Z,24.26
2023-05-19T06:23:25.213Z,24.76
2023-05-19T06:25:51.877Z,25.25
2023-05-19T06:28:18.549Z,25.88
2023-05-19T06:30:45.253Z,25.97
2023-05-19T06:33:12.032Z,25.47
2023-05-19T06:35:38.730Z,25.72
2023-05-19T06:38:05.386Z,25.63
2023-05-19T06:40:32.220Z,25.59
2023-05-19T06:42:59.085Z,25.91
2023-05-19T06:45:25.891Z,26.10
2023-05-19T06:47:52.571Z,26.01
2023-05-19T06:50:19.362Z,25.71
2023-05-19T06:52:47.165Z,25.72
2023-05-19T06:55:13.832Z,25.91
2023-05-19T06:57:40.674Z,26.19
2023-05-19T07:00:13.878Z,26.28
2023-05-19T07:02:41.991Z,26.13
2023-05-19T07:05:09.292Z,26.67
2023-05-19T07:07:36.033Z,27.34
2023-05-19T07:10:03.025Z,27.54
2023-05-19T07:12:29.815Z,27.80
2023-05-19T07:14:56.595Z,27.12
2023-05-19T07:17:23.300Z,26.33
2023-05-19T07:19:50.346Z,26.21
2023-05-19T07:22:17.269Z,26.02
2023-05-19T07:24:44.025Z,26.31
2023-05-19T07:27:10.832Z,26.48
2023-05-19T07:29:37.490Z,26.24
2023-05-19T07:32:04.512Z,26.15
2023-05-19T07:34:31.619Z,26.16
2023-05-19T07:36:58.448Z,26.18
2023-05-19T07:39:27.867Z,25.45
2023-05-19T07:41:55.753Z,25.00
2023-05-19T07:44:22.477Z,24.26
2023-05-19T07:46:49.170Z,23.78
2023-05-19T07:49:15.979Z,22.81
2023-05-19T07:51:42.757Z,22.17
2023-05-19T07:54:09.415Z,22.36
2023-05-19T07:56:36.150Z,22.19
2023-05-19T07:59:04.113Z,21.52
2023-05-19T08:01:32.181Z,21.10
2023-05-19T08:03:59.053Z,20.65
2023-05-19T08:06:26.007Z,20.08
2023-05-19T08:08:54.292Z,19.77
2023-05-19T08:11:21.609Z,19.56
2023-05-19T08:13:51.792Z,19.35
2023-05-19T08:16:18.808Z,19.23
2023-05-19T08:18:45.623Z,18.94
2023-05-19T08:21:12.375Z,18.63
2023-05-19T08:23:39.293Z,18.41
2023-05-19T08:26:06.184Z,18.17
2023-05-19T08:28:33.041Z,18.00
2023-05-19T08:30:59.894Z,17.82
2023-05-19T08:33:26.639Z,17.94
2023-05-19T08:35:53.356Z,17.91
2023-05-19T08:38:19.971Z,17.92
2023-05-19T08:40:48.489Z,17.85
2023-05-19T08:43:15.469Z,17.85
2023-05-19T08:45:48.338Z,17.67
2023-05-19T08:48:17.313Z,17.89
2023-05-19T08:50:51.404Z,17.87
2023-05-19T08:53:33.690Z,17.61
2023-05-19T08:56:04.139Z,17.65
2023-05-19T08:58:32.203Z,17.50
2023-05-19T09:01:00.495Z,17.40
2023-05-19T09:03:28.988Z,17.48
2023-05-19T09:05:56.263Z,17.47
2023-05-19T09:08:22.952Z,17.48
2023-05-19T09:10:49.566Z,17.48
2023-05-19T09:13:16.520Z,17.36
2023-05-19T09:15:45.604Z,17.44
2023-05-19T09:18:15.057Z,17.48
2023-05-19T09:20:44.540Z,17.34
2023-05-19T09:23:16.297Z,17.22
2023-05-19T09:25:53.499Z,17.20
2023-05-19T09:28:33.264Z,17.06
2023-05-19T09:31:11.003Z,17.15
2023-05-19T09:33:39.388Z,17.04
2023-05-19T09:36:08.521Z,17.10
2023-05-19T09:38:36.400Z,17.00
2023-05-19T09:41:04.124Z,17.13
2023-05-19T09:43:33.540Z,16.96
2023-05-19T09:46:06.116Z,17.02
2023-05-19T09:48:34.558Z,17.03
2023-05-19T09:51:03.609Z,17.02
2023-05-19T09:53:31.406Z,17.15
2023-05-19T09:55:58.406Z,17.16
2023-05-19T09:58:26.517Z,16.90
2023-05-19T10:00:56.950Z,17.21
2023-05-19T10:03:25.461Z,17.26
2023-05-19T10:05:53.801Z,17.21
2023-05-19T10:08:21.556Z,17.35
2023-05-19T10:10:48.523Z,17.52
2023-05-19T10:13:16.559Z,17.49
2023-05-19T10:15:57.241Z,17.54
2023-05-19T10:18:25.921Z,17.43
2023-05-19T10:20:53.904Z,17.30
2023-05-19T10:23:20.588Z,17.60
2023-05-19T10:25:49.257Z,17.78
2023-05-19T10:28:18.905Z,17.94
2023-05-19T10:30:49.025Z,18.11
2023-05-19T10:33:18.202Z,18.30
2023-05-19T10:36:29.618Z,18.39
2023-05-19T10:39:05.259Z,18.31
2023-05-19T10:41:47.046Z,18.16
2023-05-19T10:44:35.197Z,18.01
2023-05-19T10:47:01.880Z,17.98
2023-05-19T10:49:28.943Z,18.00
2023-05-19T10:51:58.657Z,17.85
2023-05-19T10:54:41.497Z,17.96
2023-05-19T10:57:08.383Z,18.10
2023-05-19T10:59:37.795Z,18.14
2023-05-19T11:02:05.756Z,18.32
2023-05-19T11:04:51.808Z,18.33
2023-05-19T11:07:20.994Z,18.53
2023-05-19T11:09:52.242Z,18.52
2023-05-19T11:12:24.630Z,18.59
2023-05-19T11:14:55.519Z,18.69
2023-05-19T11:17:24.829Z,18.75
2023-05-19T11:19:54.598Z,18.64
2023-05-19T11:22:26.269Z,18.58
2023-05-19T11:24:56.001Z,18.86
2023-05-19T11:27:31.454Z,18.99
2023-05-19T11:30:20.087Z,18.98
2023-05-19T11:32:50.660Z,18.86
2023-05-19T11:35:19.159Z,18.90
2023-05-19T11:37:47.690Z,19.06
2023-05-19T11:40:15.751Z,19.14
2023-05-19T11:42:42.568Z,19.04
2023-05-19T11:45:09.804Z,19.01
2023-05-19T11:47:51.741Z,18.92
2023-05-19T11:50:23.409Z,19.00
2023-05-19T11:52:51.844Z,19.26
2023-05-19T11:55:22.102Z,19.13
2023-05-19T11:58:08.992Z,19.02
2023-05-19T12:00:39.654Z,18.64
2023-05-19T12:03:08.116Z,19.05
2023-05-19T12:05:42.705Z,18.90
2023-05-19T12:08:11.128Z,19.01
2023-05-19T12:10:39.559Z,19.02
2023-05-19T12:13:09.132Z,19.08
2023-05-19T12:15:36.690Z,19.24
2023-05-19T12:18:03.916Z,19.38
2023-05-19T12:20:36.152Z,19.49
2023-05-19T12:23:03.968Z,19.18
2023-05-19T12:25:31.844Z,19.15
2023-05-19T12:28:00.263Z,19.03
2023-05-19T12:30:31.814Z,18.89
2023-05-19T12:32:59.053Z,19.00
2023-05-19T12:35:30.678Z,19.12
2023-05-19T12:38:02.367Z,19.10
2023-05-19T12:40:29.906Z,19.18
2023-05-19T12:42:59.225Z,19.18
2023-05-19T12:45:28.429Z,19.14
2023-05-19T12:47:56.048Z,19.31
2023-05-19T12:50:30.382Z,19.41
2023-05-19T12:52:59.546Z,19.36
2023-05-19T12:55:26.625Z,19.39
2023-05-19T12:57:59.575Z,19.46
2023-05-19T13:00:31.261Z,19.43
2023-05-19T13:03:05.032Z,19.40
2023-05-19T13:05:37.961Z,19.40
2023-05-19T13:08:09.373Z,19.49
2023-05-19T13:10:38.500Z,19.46
2023-05-19T13:13:06.954Z,19.33
2023-05-19T13:15:38.832Z,19.33
2023-05-19T13:18:11.259Z,19.57
2023-05-19T13:20:39.230Z,19.30
2023-05-19T13:23:06.086Z,19.61
2023-05-19T13:25:34.452Z,19.69
2023-05-19T13:28:05.799Z,19.59
2023-05-19T13:30:34.004Z,19.79
2023-05-19T13:33:01.047Z,19.77
2023-05-19T13:35:27.918Z,19.92
2023-05-19T13:37:54.816Z,19.90
2023-05-19T13:40:23.085Z,19.93
2023-05-19T13:42:49.841Z,19.81
2023-05-19T13:45:16.519Z,19.82
2023-05-19T13:47:43.260Z,19.97
2023-05-19T13:50:10.104Z,19.83
2023-05-19T13:52:36.762Z,19.86
2023-05-19T13:55:03.734Z,19.60
2023-05-19T13:57:30.461Z,19.66
2023-05-19T14:00:03.316Z,19.61
2023-05-19T14:02:31.511Z,19.47
2023-05-19T14:04:58.281Z,19.64
2023-05-19T14:07:25.752Z,19.48
2023-05-19T14:09:53.097Z,19.42
2023-05-19T14:12:23.259Z,19.33
2023-05-19T14:14:52.113Z,19.32
2023-05-19T14:17:18.977Z,19.26
2023-05-19T14:19:45.712Z,19.36
2023-05-19T14:22:13.380Z,19.08
2023-05-19T14:24:41.595Z,19.21
2023-05-19T14:27:08.231Z,19.21
2023-05-19T14:29:35.433Z,19.11
2023-05-19T14:32:03.158Z,19.14
2023-05-19T14:34:30.429Z,19.21
2023-05-19T14:36:57.292Z,19.31
2023-05-19T14:39:24.052Z,19.42
2023-05-19T14:41:52.003Z,19.36
2023-05-19T14:44:18.873Z,19.27
2023-05-19T14:46:45.634Z,19.44
2023-05-19T14:49:12.341Z,19.38
2023-05-19T14:51:39.011Z,19.54
2023-05-19T14:54:05.866Z,19.39
2023-05-19T14:56:32.557Z,19.36
2023-05-19T14:58:59.233Z,19.23
2023-05-19T15:01:25.969Z,19.18
2023-05-19T15:03:52.831Z,19.12
2023-05-19T15:06:19.670Z,19.18
2023-05-19T15:08:46.582Z,19.25
2023-05-19T15:11:13.586Z,19.33
2023-05-19T15:13:40.496Z,19.33
2023-05-19T15:16:17.765Z,19.15
2023-05-19T15:18:45.242Z,19.37
2023-05-19T15:21:12.318Z,19.37
2023-05-19T15:23:39.377Z,19.43
2023-05-19T15:26:06.055Z,19.34
2023-05-19T15:28:33.628Z,19.26
2023-05-19T15:31:00.429Z,19.20
2023-05-19T15:33:27.452Z,18.89
2023-05-19T15:35:54.463Z,19.27
2023-05-19T15:38:21.288Z,19.34
2023-05-19T15:40:48.096Z,19.45
2023-05-19T15:43:15.106Z,19.51
2023-05-19T15:45:52.373Z,19.45
2023-05-19T15:48:19.370Z,19.56
2023-05-19T15:50:46.084Z,19.78
2023-05-19T15:53:12.870Z,19.57
2023-05-19T15:55:39.643Z,19.75
2023-05-19T15:58:06.312Z,19.52
2023-05-19T16:00:33.169Z,19.65
2023-05-19T16:03:00.167Z,19.51
2023-05-19T16:05:26.986Z,19.44
2023-05-19T16:07:53.654Z,19.51
2023-05-19T16:10:20.582Z,19.46
2023-05-19T16:12:47.768Z,19.56
2023-05-19T16:15:14.506Z,19.61
2023-05-19T16:17:41.432Z,19.48
2023-05-19T16:20:08.748Z,19.05
2023-05-19T16:22:35.526Z,19.18
2023-05-19T16:25:02.327Z,19.25
2023-05-19T16:27:29.200Z,19.22
2023-05-19T16:29:55.959Z,19.09
2023-05-19T16:32:22.885Z,19.02
2023-05-19T16:34:49.612Z,19.00
2023-05-19T16:37:16.283Z,18.87
2023-05-19T16:39:43.985Z,18.74
2023-05-19T16:42:10.748Z,18.90
2023-05-19T16:44:37.675Z,18.78
2023-05-19T16:47:04.708Z,18.97
2023-05-19T16:49:31.598Z,18.92
2023-05-19T16:51:58.308Z,18.94
2023-05-19T16:54:25.903Z,18.92
2023-05-19T16:56:52.585Z,18.97
2023-05-19T16:59:19.238Z,19.00
2023-05-19T17:01:46.190Z,18.89
2023-05-19T17:04:13.283Z,18.91
2023-05-19T17:06:40.188Z,19.02
2023-05-19T17:09:06.911Z,18.91
2023-05-19T17:11:33.576Z,19.03
2023-05-19T17:14:00.388Z,18.99
2023-05-19T17:16:27.150Z,18.73
2023-05-19T17:18:53.952Z,18.70
2023-05-19T17:21:20.870Z,18.41
2023-05-19T17:23:47.640Z,18.45
2023-05-19T17:26:15.860Z,18.31
2023-05-19T17:28:42.651Z,18.25
2023-05-19T17:31:13.114Z,18.15
2023-05-19T17:33:40.214Z,18.09
2023-05-19T17:36:08.087Z,17.78
2023-05-19T17:38:35.112Z,17.80
2023-05-19T17:41:02.554Z,17.77
2023-05-19T17:43:30.213Z,17.71
2023-05-19T17:45:58.677Z,17.64
2023-05-19T17:48:26.240Z,17.64
2023-05-19T17:50:53.106Z,17.51
2023-05-19T17:53:20.034Z,17.45
2023-05-19T17:55:51.237Z,17.25
2023-05-19T17:58:18.758Z,17.25
2023-05-19T18:00:46.092Z,17.24
2023-05-19T18:03:13.163Z,17.31
2023-05-19T18:05:40.505Z,17.25
2023-05-19T18:08:09.430Z,17.24
2023-05-19T18:10:38.121Z,17.12
2023-05-19T18:13:05.894Z,16.97
2023-05-19T18:15:32.967Z,16.94
2023-05-19T18:18:00.204Z,16.89
2023-05-19T18:20:27.191Z,16.81
2023-05-19T18:22:54.285Z,16.73
2023-05-19T18:25:20.983Z,16.71
2023-05-19T18:27:47.757Z,16.71
2023-05-19T18:30:14.572Z,16.57
2023-05-19T18:32:41.584Z,16.58
2023-05-19T18:35:09.092Z,16.46
2023-05-19T18:37:35.850Z,16.41
2023-05-19T18:40:02.560Z,16.27
2023-05-19T18:42:29.430Z,16.24
2023-05-19T18:44:56.673Z,16.28
2023-05-19T18:47:23.292Z,16.16
2023-05-19T18:49:50.355Z,16.17
2023-05-19T18:52:18.998Z,16.13
2023-05-19T18:54:47.137Z,16.00
2023-05-19T18:57:16.656Z,15.95
2023-05-19T18:59:43.370Z,15.71
2023-05-19T19:02:10.191Z,15.75
2023-05-19T19:04:36.973Z,15.58
2023-05-19T19:07:03.709Z,15.64
2023-05-19T19:09:30.581Z,15.50
2023-05-19T19:11:57.332Z,15.36
2023-05-19T19:14:24.150Z,15.29
2023-05-19T19:16:50.898Z,15.31
2023-05-19T19:19:18.229Z,15.34
2023-05-19T19:21:44.968Z,15.17
2023-05-19T19:24:11.721Z,15.13
2023-05-19T19:26:38.504Z,15.10
2023-05-19T19:29:05.161Z,14.99
2023-05-19T19:31:33.289Z,14.88
2023-05-19T19:34:03.761Z,14.81
2023-05-19T19:36:31.878Z,14.67
2023-05-19T19:38:58.817Z,14.67
2023-05-19T19:41:26.675Z,14.46
2023-05-19T19:43:53.778Z,14.38
2023-05-19T19:46:20.517Z,14.28
2023-05-19T19:48:47.262Z,14.26
2023-05-19T19:51:13.921Z,14.26
2023-05-19T19:53:40.616Z,14.25
2023-05-19T19:56:07.506Z,14.15
2023-05-19T19:58:34.295Z,14.05
2023-05-19T20:01:02.807Z,14.13
2023-05-19T20:03:29.770Z,14.09
2023-05-19T20:05:57.091Z,13.95
2023-05-19T20:08:24.951Z,14.02
2023-05-19T20:10:52.184Z,13.87
2023-05-19T20:13:19.355Z,13.83
2023-05-19T20:15:47.053Z,13.60
2023-05-19T20:18:13.872Z,13.78
2023-05-19T20:20:41.034Z,13.73
2023-05-19T20:23:08.182Z,13.36
2023-05-19T20:25:50.109Z,13.59
2023-05-19T20:28:25.830Z,13.53
2023-05-19T20:30:52.857Z,13.44
2023-05-19T20:33:19.544Z,13.26
2023-05-19T20:35:46.259Z,13.28
2023-05-19T20:38:13.044Z,13.36
2023-05-19T20:40:39.830Z,13.17
2023-05-19T20:43:06.441Z,13.28
2023-05-19T20:45:33.542Z,13.15
2023-05-19T20:48:02.740Z,13.18
2023-05-19T20:50:29.591Z,13.18
2023-05-19T20:52:56.434Z,13.15
2023-05-19T20:55:23.059Z,12.78
2023-05-19T20:57:49.740Z,12.88
2023-05-19T21:00:16.789Z,12.87
2023-05-19T21:02:44.293Z,12.92
2023-05-19T21:05:11.252Z,12.84
2023-05-19T21:07:38.101Z,12.88
2023-05-19T21:10:05.244Z,12.76
2023-05-19T21:12:34.274Z,12.84
2023-05-19T21:15:01.822Z,12.84
2023-05-19T21:17:28.586Z,12.67
2023-05-19T21:19:59.585Z,12.64
2023-05-19T21:22:26.946Z,12.73
2023-05-19T21:24:54.321Z,12.68
2023-05-19T21:27:21.451Z,12.64
2023-05-19T21:29:52.995Z,12.49
2023-05-19T21:32:20.445Z,12.59
2023-05-19T21:34:47.652Z,12.56
2023-05-19T21:37:16.352Z,12.51
2023-05-19T21:39:43.516Z,12.46
2023-05-19T21:42:10.291Z,12.46
2023-05-19T21:44:37.026Z,12.39
2023-05-19T21:47:03.791Z,12.45
2023-05-19T21:49:31.250Z,12.34
2023-05-19T21:51:58.265Z,12.19
2023-05-19T21:54:24.957Z,12.17
2023-05-19T21:56:51.746Z,12.28
2023-05-19T21:59:18.697Z,12.31
2023-05-19T22:01:45.806Z,12.20
2023-05-19T22:04:14.302Z,12.28
2023-05-19T22:06:41.901Z,11.86
2023-05-19T22:09:09.158Z,12.16
2023-05-19T22:11:36.309Z,12.14
2023-05-19T22:14:03.010Z,12.16
2023-05-19T22:16:30.864Z,12.15
2023-05-19T22:18:57.746Z,12.14
2023-05-19T22:21:24.576Z,12.00
2023-05-19T22:23:52.809Z,12.06
2023-05-19T22:26:19.608Z,12.03
2023-05-19T22:28:46.270Z,12.08
2023-05-19T22:31:12.956Z,11.99
2023-05-19T22:33:39.620Z,11.95
2023-05-19T22:36:06.736Z,11.86
2023-05-19T22:38:33.359Z,11.75
2023-05-19T22:41:00.044Z,11.86
2023-05-19T22:43:26.682Z,11.86
2023-05-19T22:45:53.380Z,11.91
2023-05-19T22:48:20.552Z,11.89
2023-05-19T22:50:47.326Z,11.81
2023-05-19T22:53:13.986Z,11.85
2023-05-19T22:55:40.730Z,11.68
2023-05-19T22:58:07.555Z,11.72
2023-05-19T23:00:34.121Z,11.75
2023-05-19T23:03:01.045Z,11.65
2023-05-19T23:05:27.773Z,11.63
2023-05-19T23:07:54.510Z,11.71
2023-05-19T23:10:21.227Z,11.73
2023-05-19T23:12:48.873Z,11.74
2023-05-19T23:15:15.727Z,11.59
2023-05-19T23:17:42.514Z,11.74
2023-05-19T23:20:09.828Z,11.73
2023-05-19T23:22:36.470Z,11.36
2023-05-19T23:25:07.563Z,11.59
2023-05-19T23:27:36.176Z,11.64
2023-05-19T23:30:03.606Z,11.68
2023-05-19T23:32:30.359Z,11.63
2023-05-19T23:34:57.086Z,11.55
2023-05-19T23:37:23.843Z,11.21
2023-05-19T23:39:50.624Z,11.56
2023-05-19T23:42:17.471Z,11.57
2023-05-19T23:44:44.297Z,11.51
2023-05-19T23:47:11.003Z,11.46
2023-05-19T23:49:37.725Z,11.47
2023-05-19T23:52:04.442Z,11.47
2023-05-19T23:54:31.103Z,11.45
2023-05-19T23:56:58.554Z,11.46
2023-05-19T23:59:25.330Z,11.42
